createdAt,value
2023-02-11T00:00:42.436Z,21.63
2023-02-11T00:03:09.497Z,20.07
2023-02-11T00:05:37.596Z,14.13
2023-02-11T00:08:04.569Z,13.30
2023-02-11T00:10:32.323Z,14.23
2023-02-11T00:12:58.964Z,16.57
2023-02-11T00:15:25.786Z,18.53
2023-02-11T00:17:52.501Z,15.87
2023-02-11T00:20:20.239Z,15.63
2023-02-11T00:22:46.956Z,15.37
2023-02-11T00:25:13.625Z,23.73
2023-02-11T00:27:40.341Z,24.17
2023-02-11T00:30:07.556Z,21.10
2023-02-11T00:32:34.682Z,12.37
2023-02-11T00:35:01.337Z,9.93
2023-02-11T00:37:28.175Z,9.87
2023-02-11T00:39:55.087Z,12.20
2023-02-11T00:42:21.753Z,9.60
2023-02-11T00:44:48.442Z,11.23
2023-02-11T00:47:15.130Z,10.97
2023-02-11T00:49:41.940Z,12.60
2023-02-11T00:52:08.686Z,14.47
2023-02-11T00:54:35.624Z,14.93
2023-02-11T00:57:02.300Z,17.07
2023-02-11T00:59:29.162Z,14.87
2023-02-11T01:01:56.944Z,14.17
2023-02-11T01:04:23.706Z,13.73
2023-02-11T01:06:50.478Z,13.43
2023-02-11T01:09:17.157Z,12.47
2023-02-11T01:11:44.141Z,16.00
2023-02-11T01:14:10.838Z,15.57
2023-02-11T01:16:37.662Z,15.10
2023-02-11T01:19:04.583Z,13.50
2023-02-11T01:21:31.285Z,13.07
2023-02-11T01:23:57.988Z,13.97
2023-02-11T01:26:24.726Z,16.13
2023-02-11T01:28:51.513Z,20.93
2023-02-11T01:31:18.311Z,18.03
2023-02-11T01:33:45.105Z,13.20
2023-02-11T01:36:12.456Z,12.80
2023-02-11T01:38:41.057Z,12.07
2023-02-11T01:41:11.164Z,13.57
2023-02-11T01:43:42.503Z,13.93
2023-02-11T01:46:34.966Z,13.30
2023-02-11T01:49:09.380Z,15.80
2023-02-11T01:51:46.581Z,17.07
2023-02-11T01:54:37.181Z,14.37
2023-02-11T01:57:24.932Z,14.20
2023-02-11T02:00:06.738Z,15.03
2023-02-11T02:02:45.502Z,15.80
2023-02-11T02:05:49.107Z,16.07
2023-02-11T02:08:44.136Z,15.23
2023-02-11T02:11:11.059Z,16.67
2023-02-11T02:13:38.257Z,17.40
2023-02-11T02:16:09.797Z,15.40
2023-02-11T02:19:08.735Z,15.20
2023-02-11T02:22:04.578Z,15.67
2023-02-11T02:25:10.258Z,16.87
2023-02-11T02:28:05.323Z,17.07
2023-02-11T02:30:46.964Z,17.90
2023-02-11T02:33:23.123Z,25.03
2023-02-11T02:36:07.287Z,19.23
2023-02-11T02:38:41.083Z,17.58
2023-02-11T02:41:11.944Z,16.88
2023-02-11T02:43:45.733Z,13.07
2023-02-11T02:46:19.391Z,13.35
2023-02-11T02:48:47.464Z,14.70
2023-02-11T02:51:42.120Z,14.47
2023-02-11T02:54:27.192Z,10.00
2023-02-11T02:57:18.005Z,10.07
2023-02-11T03:00:18.004Z,10.67
2023-02-11T03:03:09.267Z,8.90
2023-02-11T03:05:41.827Z,12.53
2023-02-11T03:08:15.492Z,11.60
2023-02-11T03:10:45.880Z,11.43
2023-02-11T03:13:17.048Z,11.43
2023-02-11T03:15:48.688Z,13.23
2023-02-11T03:18:18.673Z,11.77
2023-02-11T03:20:49.698Z,12.83
2023-02-11T03:23:25.165Z,14.40
2023-02-11T03:26:18.399Z,13.67
2023-02-11T03:29:22.619Z,13.90
2023-02-11T03:32:07.567Z,17.83
2023-02-11T03:34:47.918Z,19.67
2023-02-11T03:37:20.395Z,26.63
2023-02-11T03:40:15.723Z,28.30
2023-02-11T03:42:54.282Z,25.47
2023-02-11T03:45:23.946Z,24.03
2023-02-11T03:48:25.387Z,18.70
2023-02-11T03:50:54.471Z,20.27
2023-02-11T03:53:22.407Z,31.30
2023-02-11T03:55:52.590Z,39.80
2023-02-11T03:58:19.718Z,35.73
2023-02-11T04:00:46.445Z,33.60
2023-02-11T04:03:13.724Z,32.13
2023-02-11T04:05:41.045Z,22.70
2023-02-11T04:08:07.819Z,17.27
2023-02-11T04:10:34.695Z,9.20
2023-02-11T04:13:01.537Z,7.67
2023-02-11T04:15:28.372Z,10.63
2023-02-11T04:17:55.021Z,13.20
2023-02-11T04:20:21.712Z,15.90
2023-02-11T04:22:48.449Z,16.77
2023-02-11T04:25:15.136Z,17.73
2023-02-11T04:27:41.797Z,20.43
2023-02-11T04:30:09.498Z,19.00
2023-02-11T04:32:36.203Z,17.00
2023-02-11T04:35:03.672Z,17.50
2023-02-11T04:37:30.456Z,15.83
2023-02-11T04:39:57.237Z,17.63
2023-02-11T04:42:24.763Z,13.10
2023-02-11T04:44:52.695Z,8.60
2023-02-11T04:47:19.566Z,10.50
2023-02-11T04:49:46.251Z,10.50
2023-02-11T04:52:12.921Z,13.97
2023-02-11T04:54:39.725Z,17.33
2023-02-11T04:57:06.440Z,17.60
2023-02-11T04:59:33.185Z,20.03
2023-02-11T05:02:00.102Z,23.10
2023-02-11T05:04:26.856Z,16.63
2023-02-11T05:06:53.504Z,17.13
2023-02-11T05:09:20.242Z,17.43
2023-02-11T05:11:47.012Z,18.10
2023-02-11T05:14:13.685Z,19.90
2023-02-11T05:16:40.383Z,20.63
2023-02-11T05:19:07.239Z,21.07
2023-02-11T05:21:33.995Z,21.13
2023-02-11T05:24:00.769Z,29.13
2023-02-11T05:26:27.614Z,26.23
2023-02-11T05:28:54.329Z,22.77
2023-02-11T05:31:21.098Z,24.80
2023-02-11T05:33:47.816Z,30.57
2023-02-11T05:36:14.941Z,136.37
2023-02-11T05:38:42.670Z,53.30
2023-02-11T05:41:10.595Z,41.60
2023-02-11T05:43:37.666Z,38.20
2023-02-11T05:46:04.910Z,33.63
2023-02-11T05:48:32.293Z,41.97
2023-02-11T05:50:59.358Z,57.17
2023-02-11T05:53:26.085Z,35.63
2023-02-11T05:55:52.969Z,33.23
2023-02-11T05:58:19.764Z,32.90
2023-02-11T06:00:46.406Z,29.03
2023-02-11T06:03:13.111Z,35.03
2023-02-11T06:05:39.849Z,32.13
2023-02-11T06:08:06.504Z,34.13
2023-02-11T06:10:33.186Z,34.27
2023-02-11T06:12:59.892Z,44.07
2023-02-11T06:15:26.628Z,55.07
2023-02-11T06:17:53.369Z,58.17
2023-02-11T06:20:20.783Z,60.07
2023-02-11T06:22:47.580Z,63.23
2023-02-11T06:25:15.055Z,66.17
2023-02-11T06:27:41.802Z,60.70
2023-02-11T06:30:10.308Z,68.97
2023-02-11T06:32:44.483Z,78.30
2023-02-11T06:35:12.787Z,71.47
2023-02-11T06:37:40.511Z,72.83
2023-02-11T06:40:07.573Z,69.50
2023-02-11T06:42:36.181Z,62.80
2023-02-11T06:45:06.109Z,59.90
2023-02-11T06:47:33.119Z,48.37
2023-02-11T06:50:00.240Z,55.63
2023-02-11T06:52:26.939Z,52.43
2023-02-11T06:54:53.597Z,55.63
2023-02-11T06:57:20.285Z,54.50
2023-02-11T06:59:46.961Z,51.90
2023-02-11T07:02:13.675Z,52.80
2023-02-11T07:04:40.440Z,55.97
2023-02-11T07:07:07.116Z,56.17
2023-02-11T07:09:33.810Z,57.60
2023-02-11T07:12:00.583Z,55.17
2023-02-11T07:14:27.430Z,50.07
2023-02-11T07:16:54.273Z,54.17
2023-02-11T07:19:21.100Z,44.90
2023-02-11T07:21:48.890Z,52.13
2023-02-11T07:24:15.646Z,53.73
2023-02-11T07:26:42.814Z,56.67
2023-02-11T07:29:09.929Z,62.33
2023-02-11T07:31:36.710Z,57.97
2023-02-11T07:34:03.653Z,52.05
2023-02-11T07:36:32.127Z,55.75
2023-02-11T07:39:00.258Z,54.05
2023-02-11T07:41:27.912Z,59.65
2023-02-11T07:43:54.732Z,66.30
2023-02-11T07:46:27.073Z,54.40
2023-02-11T07:48:55.037Z,63.78
2023-02-11T07:51:24.971Z,82.95
2023-02-11T07:53:52.228Z,61.88
2023-02-11T07:56:20.549Z,53.58
2023-02-11T07:58:47.690Z,58.80
2023-02-11T08:01:18.013Z,58.45
2023-02-11T08:03:45.753Z,58.80
2023-02-11T08:06:14.793Z,55.72
2023-02-11T08:08:42.883Z,59.17
2023-02-11T08:11:17.901Z,49.65
2023-02-11T08:16:20.142Z,45.20
2023-02-11T08:21:13.974Z,51.97
2023-02-11T08:23:42.406Z,50.83
2023-02-11T08:26:19.273Z,68.93
2023-02-11T08:28:48.007Z,48.63
2023-02-11T08:31:20.370Z,42.58
2023-02-11T08:33:47.358Z,44.95
2023-02-11T08:36:16.039Z,45.00
2023-02-11T08:38:44.425Z,41.80
2023-02-11T08:41:11.601Z,40.70
2023-02-11T08:43:41.742Z,43.22
2023-02-11T08:46:17.409Z,57.58
2023-02-11T08:48:45.215Z,23.50
2023-02-11T08:51:21.967Z,29.05
2023-02-11T08:53:49.196Z,23.13
2023-02-11T08:56:17.037Z,16.23
2023-02-11T08:58:44.280Z,16.02
2023-02-11T09:01:12.909Z,13.20
2023-02-11T09:03:41.334Z,12.50
2023-02-11T09:06:10.473Z,9.75
2023-02-11T09:08:38.923Z,10.70
2023-02-11T09:11:06.099Z,11.88
2023-02-11T09:13:33.317Z,11.75
2023-02-11T09:16:02.436Z,9.98
2023-02-11T09:18:29.107Z,11.35
2023-02-11T09:21:06.681Z,11.32
2023-02-11T09:23:34.575Z,10.05
2023-02-11T09:26:09.553Z,10.07
2023-02-11T09:28:36.599Z,33.40
2023-02-11T09:31:08.558Z,7.80
2023-02-11T09:33:36.229Z,8.32
2023-02-11T09:36:05.420Z,14.63
2023-02-11T09:38:33.402Z,6.50
2023-02-11T09:41:02.726Z,6.28
2023-02-11T09:43:46.832Z,6.10
2023-02-11T09:46:15.982Z,5.28
2023-02-11T09:48:46.114Z,4.78
2023-02-11T09:51:48.384Z,2.38
2023-02-11T09:54:34.346Z,4.15
2023-02-11T09:57:01.196Z,3.70
2023-02-11T09:59:28.071Z,7.03
2023-02-11T10:02:17.448Z,4.90
2023-02-11T10:05:02.767Z,4.43
2023-02-11T10:07:43.277Z,5.68
2023-02-11T10:10:15.825Z,5.88
2023-02-11T10:13:02.733Z,5.97
2023-02-11T10:15:55.549Z,4.68
2023-02-11T10:18:46.785Z,5.43
2023-02-11T10:21:28.654Z,8.13
2023-02-11T10:24:00.847Z,5.65
2023-02-11T10:26:31.067Z,10.18
2023-02-11T10:29:05.643Z,8.95
2023-02-11T10:31:43.821Z,5.85
2023-02-11T10:34:12.759Z,9.55
2023-02-11T10:36:42.107Z,4.10
2023-02-11T10:39:21.081Z,4.78
2023-02-11T10:41:54.849Z,4.65
2023-02-11T10:44:27.679Z,3.05
2023-02-11T10:46:55.686Z,3.80
2023-02-11T10:49:35.844Z,6.35
2023-02-11T10:52:26.032Z,6.10
2023-02-11T10:55:01.746Z,4.10
2023-02-11T10:57:50.245Z,4.60
2023-02-11T11:00:41.073Z,6.47
2023-02-11T11:03:18.805Z,3.30
2023-02-11T11:05:51.615Z,3.72
2023-02-11T11:08:19.363Z,2.90
2023-02-11T11:11:04.013Z,2.78
2023-02-11T11:13:36.219Z,4.15
2023-02-11T11:16:12.235Z,3.67
2023-02-11T11:18:43.968Z,2.10
2023-02-11T11:21:34.456Z,3.45
2023-02-11T11:24:03.916Z,4.80
2023-02-11T11:26:42.358Z,5.05
2023-02-11T11:29:17.899Z,5.03
2023-02-11T11:31:54.797Z,3.25
2023-02-11T11:34:32.496Z,2.40
2023-02-11T11:37:02.009Z,3.95
2023-02-11T11:39:35.011Z,4.43
2023-02-11T11:42:06.116Z,6.93
2023-02-11T11:44:33.637Z,4.72
2023-02-11T11:47:12.659Z,4.03
2023-02-11T11:50:21.698Z,2.80
2023-02-11T11:52:54.247Z,4.47
2023-02-11T11:55:33.540Z,3.38
2023-02-11T11:58:00.605Z,3.72
2023-02-11T12:00:36.305Z,3.38
2023-02-11T12:03:15.037Z,5.55
2023-02-11T12:06:03.534Z,4.30
2023-02-11T12:08:51.513Z,4.60
2023-02-11T12:11:18.220Z,2.38
2023-02-11T12:13:50.625Z,3.17
2023-02-11T12:16:36.326Z,5.30
2023-02-11T12:19:32.055Z,4.95
2023-02-11T12:22:20.629Z,2.88
2023-02-11T12:24:59.175Z,2.30
2023-02-11T12:27:48.284Z,3.13
2023-02-11T12:30:40.762Z,4.03
2023-02-11T12:33:23.679Z,3.50
2023-02-11T12:35:58.995Z,4.78
2023-02-11T12:38:33.589Z,5.90
2023-02-11T12:41:46.705Z,5.55
2023-02-11T12:44:29.584Z,8.07
2023-02-11T12:47:08.454Z,6.88
2023-02-11T12:49:42.632Z,6.95
2023-02-11T12:52:27.867Z,7.00
2023-02-11T12:55:26.797Z,5.10
2023-02-11T12:57:57.345Z,5.53
2023-02-11T13:00:30.634Z,3.75
2023-02-11T13:03:12.122Z,4.93
2023-02-11T13:05:49.703Z,5.97
2023-02-11T13:08:36.745Z,4.85
2023-02-11T13:11:16.126Z,5.32
2023-02-11T13:14:02.161Z,4.22
2023-02-11T13:16:48.670Z,4.82
2023-02-11T13:19:34.908Z,3.75
2023-02-11T13:22:16.644Z,5.07
2023-02-11T13:25:02.146Z,3.45
2023-02-11T13:27:51.097Z,3.55
2023-02-11T13:30:32.720Z,7.30
2023-02-11T13:33:02.281Z,4.47
2023-02-11T13:36:04.406Z,4.38
2023-02-11T13:38:32.905Z,4.40
2023-02-11T13:41:04.545Z,5.15
2023-02-11T13:43:33.779Z,5.90
2023-02-11T13:46:04.997Z,6.18
2023-02-11T13:48:53.214Z,4.97
2023-02-11T13:51:40.422Z,4.38
2023-02-11T13:54:08.179Z,7.38
2023-02-11T13:56:40.732Z,8.50
2023-02-11T13:59:33.556Z,6.63
2023-02-11T14:02:18.961Z,7.10
2023-02-11T14:08:29.025Z,9.82
2023-02-11T14:11:26.597Z,6.90
2023-02-11T14:13:53.233Z,8.63
2023-02-11T14:16:36.969Z,6.85
2023-02-11T14:19:04.540Z,10.82
2023-02-11T14:21:37.650Z,14.80
2023-02-11T14:24:11.749Z,13.75
2023-02-11T14:26:47.597Z,11.82
2023-02-11T14:29:32.618Z,12.93
2023-02-11T14:32:17.520Z,12.25
2023-02-11T14:35:21.618Z,10.25
2023-02-11T14:37:50.677Z,13.68
2023-02-11T14:40:49.466Z,14.30
2023-02-11T14:43:24.250Z,13.95
2023-02-11T14:45:55.687Z,11.93
2023-02-11T14:48:28.688Z,17.50
2023-02-11T14:51:02.398Z,13.38
2023-02-11T14:53:32.161Z,15.23
2023-02-11T14:55:59.311Z,13.35
2023-02-11T14:58:31.772Z,44.53
2023-02-11T15:01:06.661Z,51.55
2023-02-11T15:03:41.983Z,45.92
2023-02-11T15:06:21.467Z,40.85
2023-02-11T15:09:03.156Z,43.63
2023-02-11T15:11:34.063Z,29.33
2023-02-11T15:14:25.952Z,58.30
2023-02-11T15:16:54.996Z,53.13
2023-02-11T15:19:38.448Z,54.37
2023-02-11T15:22:08.273Z,56.53
2023-02-11T15:24:35.664Z,48.93
2023-02-11T15:27:08.379Z,51.97
2023-02-11T15:29:38.897Z,53.93
2023-02-11T15:32:12.599Z,51.60
2023-02-11T15:34:39.512Z,49.67
2023-02-11T15:37:06.463Z,49.93
2023-02-11T15:39:37.836Z,50.43
2023-02-11T15:42:23.030Z,63.33
2023-02-11T15:47:29.638Z,68.30
2023-02-11T15:49:56.411Z,84.07
2023-02-11T15:52:26.355Z,50.60
2023-02-11T15:54:56.213Z,53.37
2023-02-11T15:57:23.380Z,84.83
2023-02-11T15:59:53.429Z,82.40
2023-02-11T16:02:34.994Z,102.27
2023-02-11T16:05:09.693Z,152.67
2023-02-11T16:07:50.408Z,95.57
2023-02-11T16:10:33.549Z,194.00
2023-02-11T16:13:06.459Z,94.67
2023-02-11T16:15:49.896Z,83.27
2023-02-11T16:18:37.419Z,72.30
2023-02-11T16:21:07.851Z,76.43
2023-02-11T16:23:37.223Z,98.87
2023-02-11T16:26:10.793Z,110.17
2023-02-11T16:28:38.244Z,81.60
2023-02-11T16:31:06.129Z,94.97
2023-02-11T16:33:33.005Z,87.03
2023-02-11T16:36:02.221Z,89.60
2023-02-11T16:38:30.077Z,127.40
2023-02-11T16:40:56.783Z,111.10
2023-02-11T16:43:23.434Z,96.07
2023-02-11T16:45:50.647Z,98.83
2023-02-11T16:48:19.335Z,68.33
2023-02-11T16:50:52.835Z,69.90
2023-02-11T16:53:25.269Z,95.45
2023-02-11T16:55:53.227Z,114.83
2023-02-11T16:58:20.174Z,132.00
2023-02-11T17:00:48.418Z,118.43
2023-02-11T17:03:21.262Z,97.23
2023-02-11T17:05:55.384Z,101.17
2023-02-11T17:08:22.569Z,79.93
2023-02-11T17:10:49.736Z,75.83
2023-02-11T17:13:16.673Z,116.30
2023-02-11T17:15:43.567Z,91.93
2023-02-11T17:18:13.815Z,73.03
2023-02-11T17:20:41.723Z,120.73
2023-02-11T17:23:09.676Z,71.90
2023-02-11T17:25:40.618Z,84.97
2023-02-11T17:28:09.086Z,89.37
2023-02-11T17:30:35.915Z,78.40
2023-02-11T17:33:02.670Z,72.93
2023-02-11T17:35:29.274Z,71.67
2023-02-11T17:37:56.054Z,76.80
2023-02-11T17:40:22.858Z,83.03
2023-02-11T17:42:50.310Z,73.63
2023-02-11T17:45:17.180Z,75.60
2023-02-11T17:47:43.908Z,103.67
2023-02-11T17:50:11.104Z,112.20
2023-02-11T17:52:38.142Z,122.47
2023-02-11T17:55:05.961Z,114.60
2023-02-11T17:57:32.950Z,121.13
2023-02-11T17:59:59.640Z,122.23
2023-02-11T18:02:26.412Z,113.87
2023-02-11T18:04:53.404Z,114.40
2023-02-11T18:07:20.336Z,107.90
2023-02-11T18:09:48.100Z,85.83
2023-02-11T18:12:15.019Z,93.93
2023-02-11T18:14:41.764Z,81.30
2023-02-11T18:17:08.592Z,64.70
2023-02-11T18:19:36.677Z,62.13
2023-02-11T18:22:04.441Z,57.63
2023-02-11T18:24:31.456Z,61.03
2023-02-11T18:26:58.435Z,68.20
2023-02-11T18:29:25.390Z,77.67
2023-02-11T18:31:55.150Z,77.93
2023-02-11T18:34:22.276Z,80.63
2023-02-11T18:36:52.236Z,77.93
2023-02-11T18:39:20.232Z,75.27
2023-02-11T18:41:46.990Z,80.40
2023-02-11T18:44:14.324Z,78.37
2023-02-11T18:46:41.202Z,71.77
2023-02-11T18:49:07.963Z,67.77
2023-02-11T18:51:34.612Z,89.80
2023-02-11T18:54:01.800Z,82.53
2023-02-11T18:56:28.611Z,110.10
2023-02-11T18:58:56.660Z,95.27
2023-02-11T19:01:27.388Z,120.97
2023-02-11T19:03:55.848Z,71.10
2023-02-11T19:06:27.584Z,61.20
2023-02-11T19:08:59.341Z,70.97
2023-02-11T19:11:46.447Z,60.23
2023-02-11T19:14:14.695Z,62.47
2023-02-11T19:16:43.486Z,67.53
2023-02-11T19:19:10.538Z,65.73
2023-02-11T19:21:37.423Z,95.17
2023-02-11T19:24:08.374Z,70.70
2023-02-11T19:26:36.249Z,63.87
2023-02-11T19:29:03.974Z,73.10
2023-02-11T19:31:41.011Z,85.80
2023-02-11T19:34:08.374Z,99.73
2023-02-11T19:36:35.341Z,93.70
2023-02-11T19:39:03.057Z,96.30
2023-02-11T19:41:30.523Z,81.73
2023-02-11T19:43:57.576Z,79.83
2023-02-11T19:46:25.727Z,78.33
2023-02-11T19:48:53.230Z,82.20
2023-02-11T19:51:20.734Z,74.83
2023-02-11T19:53:48.330Z,81.77
2023-02-11T19:56:15.780Z,85.53
2023-02-11T19:58:43.790Z,83.13
2023-02-11T20:01:13.362Z,71.07
2023-02-11T20:03:42.580Z,69.13
2023-02-11T20:06:15.464Z,69.70
2023-02-11T20:08:42.090Z,60.90
2023-02-11T20:11:15.251Z,55.07
2023-02-11T20:13:42.536Z,53.90
2023-02-11T20:16:13.223Z,55.67
2023-02-11T20:18:40.879Z,75.10
2023-02-11T20:21:29.824Z,61.00
2023-02-11T20:23:57.195Z,98.97
2023-02-11T20:26:30.028Z,58.27
2023-02-11T20:28:59.003Z,48.07
2023-02-11T20:31:25.816Z,64.27
2023-02-11T20:33:52.681Z,77.63
2023-02-11T20:36:22.495Z,101.37
2023-02-11T20:38:49.776Z,114.33
2023-02-11T20:41:19.649Z,84.97
2023-02-11T20:43:51.909Z,99.10
2023-02-11T20:46:22.112Z,78.43
2023-02-11T20:48:49.299Z,48.47
2023-02-11T20:51:20.166Z,37.37
2023-02-11T20:53:49.960Z,34.07
2023-02-11T20:56:22.216Z,40.73
2023-02-11T20:58:49.786Z,45.87
2023-02-11T21:01:20.256Z,81.67
2023-02-11T21:03:58.857Z,77.70
2023-02-11T21:06:30.763Z,59.40
2023-02-11T21:08:57.727Z,48.33
2023-02-11T21:11:24.459Z,36.07
2023-02-11T21:13:51.171Z,35.60
2023-02-11T21:16:20.604Z,39.60
2023-02-11T21:18:48.362Z,50.20
2023-02-11T21:21:15.399Z,44.33
2023-02-11T21:23:42.050Z,58.80
2023-02-11T21:26:09.084Z,52.03
2023-02-11T21:28:37.990Z,42.20
2023-02-11T21:31:06.088Z,44.10
2023-02-11T21:33:33.806Z,41.83
2023-02-11T21:36:03.560Z,38.67
2023-02-11T21:38:30.964Z,43.47
2023-02-11T21:41:04.114Z,46.53
2023-02-11T21:43:31.388Z,58.30
2023-02-11T21:45:58.057Z,56.63
2023-02-11T21:48:25.937Z,55.43
2023-02-11T21:50:53.507Z,53.77
2023-02-11T21:53:20.530Z,43.07
2023-02-11T21:55:47.274Z,49.87
2023-02-11T21:58:14.250Z,47.73
2023-02-11T22:00:41.061Z,49.63
2023-02-11T22:03:07.826Z,58.40
2023-02-11T22:05:34.545Z,54.13
2023-02-11T22:08:01.267Z,44.07
2023-02-11T22:10:27.997Z,48.93
2023-02-11T22:12:54.672Z,44.87
2023-02-11T22:15:21.344Z,54.50
2023-02-11T22:17:48.011Z,65.73
2023-02-11T22:20:16.067Z,61.17
2023-02-11T22:22:42.724Z,63.40
2023-02-11T22:25:09.488Z,50.07
2023-02-11T22:27:36.136Z,41.73
2023-02-11T22:30:02.946Z,37.70
2023-02-11T22:32:29.683Z,32.97
2023-02-11T22:34:57.358Z,40.47
2023-02-11T22:37:24.021Z,35.00
2023-02-11T22:39:50.808Z,32.47
2023-02-11T22:42:17.490Z,30.90
2023-02-11T22:44:44.284Z,38.17
2023-02-11T22:47:11.086Z,39.33
2023-02-11T22:49:41.093Z,44.53
2023-02-11T22:52:07.901Z,36.27
2023-02-11T22:54:36.188Z,38.07
2023-02-11T22:57:04.907Z,45.33
2023-02-11T22:59:31.586Z,32.77
2023-02-11T23:01:58.554Z,39.43
2023-02-11T23:04:25.299Z,39.07
2023-02-11T23:06:51.998Z,43.23
2023-02-11T23:09:18.708Z,39.33
2023-02-11T23:11:46.969Z,32.97
2023-02-11T23:14:13.745Z,37.20
2023-02-11T23:16:40.496Z,37.87
2023-02-11T23:19:10.968Z,31.40
2023-02-11T23:21:39.341Z,32.27
2023-02-11T23:24:12.976Z,31.40
2023-02-11T23:26:41.095Z,34.53
2023-02-11T23:29:08.476Z,29.13
2023-02-11T23:31:39.866Z,31.80
2023-02-11T23:34:08.618Z,40.87
2023-02-11T23:36:35.792Z,39.90
2023-02-11T23:39:02.524Z,32.00
2023-02-11T23:41:29.326Z,24.00
2023-02-11T23:43:57.949Z,22.70
2023-02-11T23:46:26.440Z,27.10
2023-02-11T23:48:53.630Z,27.50
2023-02-11T23:51:20.873Z,22.67
2023-02-11T23:53:49.309Z,28.97
2023-02-11T23:56:22.230Z,33.67
2023-02-11T23:58:50.357Z,40.07
